KSCH/SCH METAR and TAF weather

Enter ICAO airport designator
Station Type Date Time Source
KSCH METAR 2022/08/13 12:46 UTC NOAA

KSCH 131246Z 01003KT 15SM OVC070 18/11 A3016


Station Type Date Time Source
KSCH Decoded METAR 2022/08/13 12:46 UTC NOAA

Schenectady Airport, NY, United States (KSCH) 42-51N 073-56W
Aug 13, 2022 - 08:46 AM EDT / 2022.08.13 1246 UTC
Wind: from the N (010 degrees) at 3 MPH (3 KT):0
Visibility: 15 mile(s):0
Sky conditions: overcast
Temperature: 64 F (18 C)
Dew Point: 51 F (11 C)
Relative Humidity: 63%
Pressure (altimeter): 30.16 in. Hg (1021 hPa)
ob: KSCH 131246Z 01003KT 15SM OVC070 18/11 A3016
cycle: 13

Station Type Date Time Source
KSCH TAF UTC NOAA

Error!

Example: see airport list